Time;durP1;ratioP1;P1;durP2;ratioP2;P2;SDS_P1;SDS_P2;PMS_P1;PMS_P2;Temp;Humidity;BMP_temperature;BMP_pressure;BME280_temperature;BME280_humidity;BME280_pressure;Samples;Min_cycle;Max_cycle;Signal;HPM_P1;HPM_P2
2021/01/04 00:00:22;;;;;;;6.40;3.90;;;;;;;3.53;100.00;101109.69;4990506;28;20201;-73
2021/01/04 00:02:49;;;;;;;7.23;4.10;;;;;;;3.51;100.00;101106.41;4959215;28;20190;-72
2021/01/04 00:05:35;;;;;;;7.43;4.20;;;;;;;3.49;100.00;101103.09;4989865;28;20550;-73
2021/01/04 00:08:29;;;;;;;8.00;4.90;;;;;;;3.54;100.00;101105.16;4975181;28;20188;-74
2021/01/04 00:11:16;;;;;;;9.00;4.77;;;;;;;3.60;100.00;101107.78;4962148;28;20225;-73
2021/01/04 00:14:03;;;;;;;8.33;4.70;;;;;;;3.50;100.00;101104.78;4995941;28;20238;-73
2021/01/04 00:17:06;;;;;;;8.67;5.17;;;;;;;3.61;100.00;101100.59;5011106;28;20232;-74
2021/01/04 00:20:12;;;;;;;8.13;5.13;;;;;;;3.55;100.00;101096.91;5010468;28;20200;-72
2021/01/04 00:23:19;;;;;;;8.37;5.23;;;;;;;3.57;100.00;101094.81;5026268;28;20297;-72
2021/01/04 00:26:09;;;;;;;7.97;4.73;;;;;;;3.58;100.00;101095.63;5009061;28;20220;-73
2021/01/04 00:28:35;;;;;;;7.17;5.10;;;;;;;3.63;100.00;101093.94;4996389;28;20203;-73
2021/01/04 00:31:08;;;;;;;8.50;4.83;;;;;;;3.68;100.00;101091.44;4993399;28;20272;-73
2021/01/04 00:33:43;;;;;;;9.40;5.30;;;;;;;3.61;100.00;101096.03;5011263;28;20267;-73
2021/01/04 00:36:30;;;;;;;8.63;4.93;;;;;;;3.63;100.00;101093.13;4993690;28;20713;-73
2021/01/04 00:39:17;;;;;;;6.43;4.07;;;;;;;3.68;100.00;101086.06;4995560;28;20216;-72
2021/01/04 00:42:26;;;;;;;10.07;4.67;;;;;;;3.62;100.00;101092.28;5025833;28;20235;-73
2021/01/04 00:45:04;;;;;;;6.90;4.17;;;;;;;3.65;100.00;101088.38;4994329;28;20650;-73
2021/01/04 00:47:45;;;;;;;7.97;4.33;;;;;;;3.64;100.00;101100.13;5010751;28;20243;-73
2021/01/04 00:50:47;;;;;;;8.10;5.07;;;;;;;3.54;100.00;101094.44;5026725;28;20235;-73
2021/01/04 00:53:19;;;;;;;6.77;4.07;;;;;;;3.60;100.00;101098.91;5010865;28;20181;-72
2021/01/04 00:55:55;;;;;;;8.40;5.03;;;;;;;3.65;100.00;101107.97;4974075;28;20225;-73
2021/01/04 00:58:31;;;;;;;9.00;5.20;;;;;;;3.49;100.00;101107.66;4990566;28;20224;-73
2021/01/04 01:01:19;;;;;;;9.27;5.33;;;;;;;3.54;100.00;101099.78;4990217;28;20237;-73
2021/01/04 01:03:48;;;;;;;7.93;4.67;;;;;;;3.57;100.00;101099.34;4974329;28;20221;-73
2021/01/04 01:06:45;;;;;;;8.50;4.73;;;;;;;3.60;100.00;101105.09;4991814;28;20276;-72
2021/01/04 01:09:12;;;;;;;9.23;4.70;;;;;;;3.61;100.00;101104.09;5008975;28;20181;-72
2021/01/04 01:12:13;;;;;;;10.03;5.33;;;;;;;3.67;100.00;101099.72;4975709;28;20739;-73
2021/01/04 01:14:57;;;;;;;11.60;5.50;;;;;;;3.61;100.00;101106.75;4984196;28;20197;-72
2021/01/04 01:17:56;;;;;;;10.60;5.70;;;;;;;3.64;100.00;101100.94;5007753;28;20233;-72
2021/01/04 01:20:24;;;;;;;9.83;4.87;;;;;;;3.61;100.00;101117.50;4990837;28;21766;-74
2021/01/04 01:22:54;;;;;;;8.60;5.00;;;;;;;3.64;100.00;101122.44;4980500;28;20247;-73
2021/01/04 01:25:24;;;;;;;8.00;5.03;;;;;;;3.67;100.00;101113.94;4977663;28;20240;-74
2021/01/04 01:28:11;;;;;;;9.90;5.53;;;;;;;3.57;100.00;101127.03;4979647;28;20166;-73
2021/01/04 01:30:46;;;;;;;8.63;5.10;;;;;;;3.71;100.00;101127.78;4995686;28;20225;-73
2021/01/04 01:33:49;;;;;;;8.20;4.83;;;;;;;3.70;100.00;101124.28;5012572;28;20208;-73
2021/01/04 01:36:44;;;;;;;10.30;5.47;;;;;;;3.56;100.00;101129.94;4994201;28;20225;-74
2021/01/04 01:39:21;;;;;;;8.90;4.90;;;;;;;3.61;100.00;101133.63;4995162;28;20225;-73
2021/01/04 01:42:05;;;;;;;8.43;5.00;;;;;;;3.66;100.00;101131.09;4985456;28;20313;-72
2021/01/04 01:44:38;;;;;;;8.90;4.63;;;;;;;3.66;100.00;101125.72;5004673;28;20201;-73
2021/01/04 01:47:08;;;;;;;8.93;5.40;;;;;;;3.63;100.00;101131.53;5010011;28;20918;-72
2021/01/04 01:50:02;;;;;;;11.87;5.37;;;;;;;3.56;100.00;101133.44;4978749;28;20189;-73
2021/01/04 01:53:13;;;;;;;10.27;5.07;;;;;;;3.61;100.00;101128.25;4997628;28;20220;-72
2021/01/04 01:55:50;;;;;;;10.00;5.20;;;;;;;3.57;100.00;101137.78;5000703;28;20235;-72
2021/01/04 01:58:31;;;;;;;7.33;4.80;;;;;;;3.67;100.00;101127.38;5013780;28;20717;-73
2021/01/04 02:01:28;;;;;;;10.10;5.97;;;;;;;3.64;100.00;101135.03;5012802;28;20227;-73
2021/01/04 02:04:15;;;;;;;7.37;4.43;;;;;;;3.63;100.00;101136.91;5029703;28;20181;-72
2021/01/04 02:07:11;;;;;;;8.13;5.00;;;;;;;3.66;100.00;101136.47;5013923;28;20217;-73
2021/01/04 02:09:42;;;;;;;8.97;4.60;;;;;;;3.65;100.00;101134.00;5012742;28;20185;-73
2021/01/04 02:12:16;;;;;;;10.60;5.27;;;;;;;3.65;100.00;101132.16;5011712;28;20278;-72
2021/01/04 02:15:13;;;;;;;9.63;5.00;;;;;;;3.74;100.00;101128.16;5013430;28;20629;-72
2021/01/04 02:18:00;;;;;;;8.57;4.47;;;;;;;3.69;100.00;101133.34;4991924;28;20236;-73
2021/01/04 02:20:49;;;;;;;7.87;4.77;;;;;;;3.73;100.00;101137.25;5011891;28;20286;-72
2021/01/04 02:23:39;;;;;;;10.80;4.80;;;;;;;3.72;100.00;101124.88;5029643;28;20231;-72
2021/01/04 02:26:20;;;;;;;7.23;4.90;;;;;;;3.73;100.00;101126.50;4991766;28;20287;-73
2021/01/04 02:28:54;;;;;;;5.40;4.07;;;;;;;3.87;100.00;101131.56;4979256;28;20193;-74
2021/01/04 02:31:25;;;;;;;8.47;4.87;;;;;;;3.86;100.00;101126.41;4976828;28;20221;-73
2021/01/04 02:33:51;;;;;;;7.67;4.60;;;;;;;3.92;100.00;101125.56;4978113;28;20181;-72
2021/01/04 02:36:17;;;;;;;8.93;4.90;;;;;;;3.82;100.00;101119.03;4976083;28;20557;-72
2021/01/04 02:38:50;;;;;;;10.53;4.70;;;;;;;3.87;100.00;101123.50;4977087;28;20244;-73
2021/01/04 02:41:15;;;;;;;8.73;4.53;;;;;;;3.84;100.00;101123.94;4976093;28;20225;-72
2021/01/04 02:43:41;;;;;;;7.20;4.37;;;;;;;3.83;100.00;101124.19;4976482;28;20602;-72
2021/01/04 02:46:10;;;;;;;8.63;4.70;;;;;;;3.82;100.00;101119.84;4975576;28;20235;-73
2021/01/04 02:48:41;;;;;;;7.83;3.87;;;;;;;3.81;100.00;101118.19;4992903;28;20182;-72
2021/01/04 02:51:13;;;;;;;9.63;4.63;;;;;;;3.72;100.00;101119.50;4993455;28;20741;-73
2021/01/04 02:54:20;;;;;;;6.70;3.90;;;;;;;3.74;100.00;101114.72;4977817;28;20620;-73
2021/01/04 02:56:55;;;;;;;7.43;4.03;;;;;;;3.81;100.00;101115.53;4971584;28;20746;-73
2021/01/04 02:59:30;;;;;;;8.83;4.33;;;;;;;3.79;100.00;101120.28;5009096;28;20217;-73
2021/01/04 03:02:29;;;;;;;8.43;4.20;;;;;;;3.79;100.00;101120.28;4992288;28;20299;-72
2021/01/04 03:04:55;;;;;;;6.87;3.97;;;;;;;3.81;100.00;101123.56;5008243;28;20585;-72
2021/01/04 03:07:26;;;;;;;5.80;3.80;;;;;;;3.91;100.00;101123.91;4975295;28;20231;-73
2021/01/04 03:09:55;;;;;;;6.17;4.00;;;;;;;3.87;100.00;101128.06;4976423;28;20177;-73
2021/01/04 03:12:31;;;;;;;6.80;4.17;;;;;;;3.87;100.00;101122.69;4990994;28;20245;-72
2021/01/04 03:15:31;;;;;;;8.23;4.50;;;;;;;3.82;100.00;101126.03;4991536;28;20186;-72
2021/01/04 03:18:05;;;;;;;5.63;3.87;;;;;;;3.84;100.00;101133.88;5047234;28;20235;-72
2021/01/04 03:20:33;;;;;;;7.47;3.90;;;;;;;3.90;100.00;101130.31;5046886;28;20228;-72
2021/01/04 03:23:01;;;;;;;6.07;3.80;;;;;;;3.97;100.00;101131.09;4998032;28;20199;-72
2021/01/04 03:25:38;;;;;;;7.07;3.53;;;;;;;3.96;100.00;101126.78;4997819;28;20228;-72
2021/01/04 03:28:23;;;;;;;8.63;3.90;;;;;;;3.92;100.00;101130.94;4999557;28;20172;-74
2021/01/04 03:30:48;;;;;;;6.80;3.70;;;;;;;3.92;100.00;101130.94;5015001;28;20709;-72
2021/01/04 03:33:16;;;;;;;8.23;3.80;;;;;;;3.97;100.00;101125.72;5014656;28;20191;-73
2021/01/04 03:35:42;;;;;;;6.60;3.40;;;;;;;3.92;100.00;101130.94;5014460;28;20262;-72
2021/01/04 03:38:07;;;;;;;6.17;4.07;;;;;;;3.92;100.00;101125.56;5014907;28;20212;-73
2021/01/04 03:40:35;;;;;;;7.67;3.97;;;;;;;3.93;100.00;101132.56;5042111;28;20232;-73
2021/01/04 03:43:03;;;;;;;6.27;3.23;;;;;;;3.94;100.00;101128.84;5021139;28;20218;-72
2021/01/04 03:45:29;;;;;;;5.53;3.17;;;;;;;4.02;100.00;101129.38;5013881;28;20282;-73
2021/01/04 03:47:54;;;;;;;5.13;3.40;;;;;;;3.96;100.00;101134.81;5014310;28;20642;-72
2021/01/04 03:50:23;;;;;;;7.00;3.37;;;;;;;4.01;100.00;101127.75;5046211;28;20223;-73
2021/01/04 03:52:52;;;;;;;5.63;3.37;;;;;;;3.99;100.00;101137.06;5015730;28;20184;-72
2021/01/04 03:55:18;;;;;;;6.23;3.23;;;;;;;3.91;100.00;101134.66;4982043;28;20188;-72
2021/01/04 03:57:44;;;;;;;5.53;3.10;;;;;;;3.98;100.00;101130.06;5031907;28;20250;-72
2021/01/04 04:00:10;;;;;;;5.83;3.07;;;;;;;3.98;100.00;101125.50;5031985;28;20192;-73
2021/01/04 04:02:44;;;;;;;4.93;3.00;;;;;;;3.98;100.00;101130.06;5015988;28;20195;-72
2021/01/04 04:05:13;;;;;;;5.23;3.10;;;;;;;3.89;100.00;101120.63;5013641;28;20192;-72
2021/01/04 04:07:40;;;;;;;6.93;3.20;;;;;;;4.03;100.00;101124.84;5014173;28;20222;-73
2021/01/04 04:10:11;;;;;;;4.03;2.60;;;;;;;4.01;100.00;101118.84;5012741;28;20206;-72
2021/01/04 04:12:39;;;;;;;5.50;3.00;;;;;;;3.96;100.00;101126.78;5018691;28;20237;-73
2021/01/04 04:15:09;;;;;;;6.37;2.67;;;;;;;3.94;100.00;101123.47;5028581;28;20184;-72
2021/01/04 04:17:39;;;;;;;6.50;2.57;;;;;;;3.92;100.00;101118.31;4998701;28;20744;-72
2021/01/04 04:20:11;;;;;;;6.37;3.17;;;;;;;3.91;100.00;101123.91;4993541;28;20558;-73
2021/01/04 04:22:41;;;;;;;5.70;2.43;;;;;;;3.90;100.00;101112.34;5010321;28;20673;-72
2021/01/04 04:25:07;;;;;;;4.33;2.50;;;;;;;3.85;100.00;101117.53;4993297;28;20181;-72
2021/01/04 04:27:33;;;;;;;4.70;2.50;;;;;;;3.92;100.00;101114.81;4994114;28;20181;-72
2021/01/04 04:29:59;;;;;;;5.93;2.50;;;;;;;3.82;100.00;101119.84;4993978;28;20184;-72
2021/01/04 04:32:25;;;;;;;3.97;2.30;;;;;;;3.89;100.00;101109.88;5009609;28;20224;-72
2021/01/04 04:34:53;;;;;;;3.70;2.13;;;;;;;3.80;100.00;101110.34;4977816;28;20225;-72
2021/01/04 04:37:21;;;;;;;5.33;2.30;;;;;;;3.78;100.00;101110.56;5008876;28;20232;-72
2021/01/04 04:39:47;;;;;;;3.57;2.10;;;;;;;3.79;100.00;101114.06;5010257;28;20222;-72
2021/01/04 04:42:13;;;;;;;3.53;2.03;;;;;;;3.86;100.00;101104.91;4992627;28;20209;-73
2021/01/04 04:45:03;;;;;;;4.87;1.80;;;;;;;3.83;100.00;101116.13;4977896;28;20191;-73
2021/01/04 04:48:02;;;;;;;4.53;2.07;;;;;;;3.88;100.00;101127.00;5008935;28;20312;-72
2021/01/04 04:51:03;;;;;;;5.60;2.17;;;;;;;3.91;100.00;101123.91;4994523;28;20232;-73
2021/01/04 04:54:14;;;;;;;3.57;2.20;;;;;;;3.79;100.00;101125.66;4993350;28;20287;-72
2021/01/04 04:57:07;;;;;;;3.60;2.10;;;;;;;3.82;100.00;101130.56;4938574;29;20705;-73
2021/01/04 05:00:00;;;;;;;3.47;1.87;;;;;;;3.76;100.00;101126.09;4934226;29;20280;-72
2021/01/04 05:02:56;;;;;;;3.10;1.93;;;;;;;3.79;100.00;101131.03;4987406;28;20228;-72
2021/01/04 05:05:29;;;;;;;4.83;2.03;;;;;;;3.80;100.00;101127.28;4996255;28;20231;-73
2021/01/04 05:08:15;;;;;;;4.87;1.93;;;;;;;3.81;100.00;101128.94;4982206;28;20216;-72
2021/01/04 05:10:43;;;;;;;3.60;2.00;;;;;;;3.90;100.00;101127.63;4995189;28;20228;-72
2021/01/04 05:13:29;;;;;;;5.00;2.10;;;;;;;3.90;100.00;101135.69;5013209;28;20189;-73
2021/01/04 05:16:00;;;;;;;3.30;1.93;;;;;;;3.83;100.00;101124.19;5019673;28;20223;-72
2021/01/04 05:18:47;;;;;;;2.87;1.87;;;;;;;3.87;100.00;101134.25;5010555;28;20223;-72
2021/01/04 05:21:42;;;;;;;4.87;2.20;;;;;;;3.86;100.00;101131.78;5018766;28;20220;-72
2021/01/04 05:24:50;;;;;;;4.60;2.00;;;;;;;3.83;100.00;101126.88;4997296;28;20663;-73
2021/01/04 05:27:25;;;;;;;4.13;1.70;;;;;;;3.83;100.00;101132.25;5029148;28;20216;-72
2021/01/04 05:30:13;;;;;;;3.43;1.97;;;;;;;3.82;100.00;101135.94;5030166;28;20192;-71
2021/01/04 05:32:56;;;;;;;5.50;2.10;;;;;;;3.84;100.00;101133.88;5014066;28;20209;-73
2021/01/04 05:35:28;;;;;;;2.80;2.00;;;;;;;3.83;100.00;101132.25;5025737;28;20256;-72
2021/01/04 05:38:20;;;;;;;4.17;1.87;;;;;;;3.78;100.00;101133.94;4997395;28;20221;-73
2021/01/04 05:41:01;;;;;;;3.77;1.70;;;;;;;3.79;100.00;101124.81;5015327;28;20236;-72
2021/01/04 05:44:01;;;;;;;2.37;1.80;;;;;;;3.71;100.00;101125.91;5023264;28;20177;-73
2021/01/04 05:46:30;;;;;;;3.03;1.90;;;;;;;3.71;100.00;101127.78;5039866;28;20270;-73
2021/01/04 05:49:12;;;;;;;4.87;1.80;;;;;;;3.71;100.00;101133.94;4992986;28;20185;-72
2021/01/04 05:51:43;;;;;;;2.40;1.70;;;;;;;3.66;100.00;101128.41;5028765;28;20251;-72
2021/01/04 05:54:11;;;;;;;3.70;2.00;;;;;;;3.59;100.00;101124.97;5012821;28;20231;-78
2021/01/04 05:56:36;;;;;;;2.40;1.63;;;;;;;3.70;100.00;101126.97;5013025;28;20602;-73
2021/01/04 05:59:12;;;;;;;2.87;1.93;;;;;;;3.61;100.00;101132.81;4979918;28;20205;-72
2021/01/04 06:01:39;;;;;;;1.60;1.23;;;;;;;3.69;100.00;101119.94;5004683;28;20287;-72
2021/01/04 06:04:13;;;;;;;2.77;1.50;;;;;;;3.61;100.00;101127.44;4988156;28;20177;-73
2021/01/04 06:07:02;;;;;;;3.07;1.70;;;;;;;3.62;100.00;101129.88;4981994;28;20260;-73
2021/01/04 06:09:30;;;;;;;3.97;1.80;;;;;;;3.67;100.00;101135.44;4994029;28;20258;-72
2021/01/04 06:12:03;;;;;;;3.70;1.63;;;;;;;3.59;100.00;101130.34;5007997;28;20228;-72
2021/01/04 06:14:33;;;;;;;2.33;1.43;;;;;;;3.69;100.00;101133.34;4978513;28;20417;-74
2021/01/04 06:17:06;;;;;;;2.50;1.37;;;;;;;3.75;100.00;101127.09;4960017;28;20228;-73
2021/01/04 06:19:38;;;;;;;3.47;1.50;;;;;;;3.64;100.00;101127.78;4991774;28;20561;-74
2021/01/04 06:22:16;;;;;;;4.93;1.63;;;;;;;3.65;100.00;101129.47;4975410;28;20221;-73
2021/01/04 06:24:45;;;;;;;3.37;1.40;;;;;;;3.71;100.00;101123.22;4972669;28;20190;-72
2021/01/04 06:27:37;;;;;;;4.07;1.87;;;;;;;3.71;100.00;101122.41;4990960;28;20722;-72
2021/01/04 06:30:25;;;;;;;5.83;1.50;;;;;;;3.70;100.00;101126.09;4975213;28;20667;-73
2021/01/04 06:32:51;;;;;;;4.23;1.80;;;;;;;3.59;100.00;101130.34;4984077;28;20612;-72
2021/01/04 06:35:19;;;;;;;3.93;1.43;;;;;;;3.69;100.00;101129.84;4971408;28;20190;-73
2021/01/04 06:37:44;;;;;;;2.53;1.50;;;;;;;3.65;100.00;101129.47;4976341;28;20595;-73
2021/01/04 06:40:34;;;;;;;2.47;1.50;;;;;;;3.65;100.00;101134.00;4989858;28;20256;-73
2021/01/04 06:43:09;;;;;;;2.07;1.30;;;;;;;3.56;100.00;101141.50;4993423;28;20256;-73
2021/01/04 06:45:50;;;;;;;2.47;1.37;;;;;;;3.64;100.00;101143.91;4992006;28;20240;-74
2021/01/04 06:48:35;;;;;;;2.43;1.53;;;;;;;3.59;100.00;101135.69;4989326;28;20205;-74
2021/01/04 06:51:28;;;;;;;3.67;1.80;;;;;;;3.52;100.00;101148.34;4988188;28;20254;-73
2021/01/04 06:54:12;;;;;;;3.57;1.50;;;;;;;3.64;100.00;101149.28;4973597;28;20261;-74
2021/01/04 06:56:56;;;;;;;3.37;1.60;;;;;;;3.56;100.00;101151.41;4989451;28;20681;-74
2021/01/04 06:59:47;;;;;;;1.73;1.20;;;;;;;3.51;100.00;101143.97;4973291;28;20218;-72
2021/01/04 07:02:41;;;;;;;2.83;1.30;;;;;;;3.51;100.00;101152.03;4987655;28;20236;-73
2021/01/04 07:05:21;;;;;;;2.33;1.40;;;;;;;3.49;100.00;101154.13;4971428;28;20186;-72
2021/01/04 07:08:21;;;;;;;2.07;1.60;;;;;;;3.45;100.00;101147.53;4973222;28;20182;-72
2021/01/04 07:11:06;;;;;;;1.97;1.47;;;;;;;3.60;100.00;101152.63;4975078;28;20241;-74
2021/01/04 07:13:55;;;;;;;3.03;1.23;;;;;;;3.54;100.00;101151.63;4972298;28;20269;-73
2021/01/04 07:16:44;;;;;;;3.47;1.70;;;;;;;3.57;100.00;101153.03;4987765;28;20297;-73
2021/01/04 07:19:35;;;;;;;1.87;1.00;;;;;;;3.62;100.00;101150.53;4988618;28;20807;-73
2021/01/04 07:22:04;;;;;;;3.47;1.27;;;;;;;3.60;100.00;101158.81;4987954;28;20313;-73
2021/01/04 07:24:49;;;;;;;2.10;1.20;;;;;;;3.55;100.00;101150.59;4987814;28;20190;-72
2021/01/04 07:27:52;;;;;;;2.53;1.30;;;;;;;3.59;100.00;101162.56;4987770;28;20233;-73
2021/01/04 07:30:40;;;;;;;1.87;1.10;;;;;;;3.61;100.00;101159.66;4972949;28;20261;-73
2021/01/04 07:33:18;;;;;;;2.23;1.30;;;;;;;3.65;100.00;101160.88;4972529;28;20222;-73
2021/01/04 07:36:08;;;;;;;1.70;1.33;;;;;;;3.60;100.00;101160.69;4987180;28;20294;-72
2021/01/04 07:38:42;;;;;;;2.77;1.70;;;;;;;3.69;100.00;101160.22;4971810;28;20214;-72
2021/01/04 07:41:12;;;;;;;2.03;1.30;;;;;;;3.67;100.00;101162.28;4990204;28;20328;-73
2021/01/04 07:43:47;;;;;;;3.63;1.50;;;;;;;3.61;100.00;101165.84;4991466;28;20190;-71
2021/01/04 07:46:30;;;;;;;1.97;1.30;;;;;;;3.60;100.00;101164.19;4991443;28;20228;-72
2021/01/04 07:49:02;;;;;;;2.07;1.30;;;;;;;3.54;100.00;101159.69;5007813;28;20178;-72
2021/01/04 07:51:41;;;;;;;1.93;1.30;;;;;;;3.62;100.00;101166.66;4990240;28;20797;-72
2021/01/04 07:54:34;;;;;;;4.63;1.50;;;;;;;3.56;100.00;101171.03;4975854;28;20185;-72
2021/01/04 07:57:36;;;;;;;2.90;1.40;;;;;;;3.55;100.00;101177.44;4990252;28;20233;-72
2021/01/04 08:00:21;;;;;;;1.97;1.17;;;;;;;3.51;100.00;101176.19;5007614;28;20197;-71
2021/01/04 08:03:08;;;;;;;1.50;1.40;;;;;;;3.61;100.00;101173.91;5029938;28;20736;-72
2021/01/04 08:05:59;;;;;;;2.07;1.13;;;;;;;3.66;100.00;101174.06;5045853;28;20238;-72
2021/01/04 08:08:43;;;;;;;3.43;1.63;;;;;;;3.56;100.00;101176.41;5046709;28;20199;-72
2021/01/04 08:11:27;;;;;;;3.90;1.47;;;;;;;3.62;100.00;101172.84;5024875;28;20292;-72
2021/01/04 08:14:10;;;;;;;3.57;1.30;;;;;;;3.69;100.00;101179.00;5037731;28;20226;-72
2021/01/04 08:16:50;;;;;;;2.03;1.40;;;;;;;3.61;100.00;101173.91;5012380;28;20377;-72
2021/01/04 08:19:18;;;;;;;1.60;1.20;;;;;;;3.71;100.00;101181.47;4973938;28;20213;-72
2021/01/04 08:22:20;;;;;;;2.87;1.30;;;;;;;3.66;100.00;101190.16;4990389;28;20222;-72
2021/01/04 08:24:47;;;;;;;2.17;1.40;;;;;;;3.76;100.00;101187.84;5002569;28;20185;-72
2021/01/04 08:28:08;;;;;;;3.27;1.40;;;;;;;3.62;100.00;101194.31;4974405;28;20226;-72
2021/01/04 08:30:37;;;;;;;2.73;1.50;;;;;;;3.66;100.00;101190.16;4992193;28;20231;-72
2021/01/04 08:33:04;;;;;;;2.53;1.20;;;;;;;3.60;100.00;101180.28;4994256;28;20276;-72
2021/01/04 08:35:35;;;;;;;2.93;1.50;;;;;;;3.65;100.00;101188.53;5008887;28;20229;-71
2021/01/04 08:38:15;;;;;;;3.27;1.30;;;;;;;3.61;100.00;101195.38;5009323;28;20259;-72
2021/01/04 08:40:51;;;;;;;4.60;1.43;;;;;;;3.67;100.00;101185.63;5009182;28;20224;-73
2021/01/04 08:43:16;;;;;;;1.50;1.13;;;;;;;3.71;100.00;101189.53;5002246;28;20254;-72
2021/01/04 08:45:48;;;;;;;1.63;1.20;;;;;;;3.63;100.00;101195.97;4989165;28;20229;-73
2021/01/04 08:48:35;;;;;;;2.73;1.37;;;;;;;3.61;100.00;101192.69;4975517;28;20177;-72
2021/01/04 08:51:13;;;;;;;1.40;1.07;;;;;;;3.65;100.00;101182.34;4975463;28;20658;-72
2021/01/04 08:53:49;;;;;;;2.40;1.20;;;;;;;3.71;100.00;101187.66;4989965;28;20193;-72
2021/01/04 08:56:21;;;;;;;2.33;1.00;;;;;;;3.67;100.00;101185.63;4990253;28;20248;-75
2021/01/04 08:58:47;;;;;;;1.73;1.07;;;;;;;3.65;100.00;101177.78;4990898;28;20206;-72
2021/01/04 09:01:12;;;;;;;1.70;1.07;;;;;;;3.69;100.00;101188.94;4972378;28;20221;-72
2021/01/04 09:03:43;;;;;;;3.33;1.00;;;;;;;3.66;100.00;101195.53;4996296;28;20294;-72
2021/01/04 09:06:11;;;;;;;2.77;1.30;;;;;;;3.64;100.00;101194.94;4989129;28;20730;-72
2021/01/04 09:08:37;;;;;;;2.23;1.50;;;;;;;3.58;100.00;101198.47;4989670;28;20209;-72
2021/01/04 09:11:06;;;;;;;1.20;1.10;;;;;;;3.66;100.00;101195.53;4973311;28;20237;-72
2021/01/04 09:13:37;;;;;;;1.77;1.30;;;;;;;3.73;100.00;101201.69;4973975;28;20181;-72
2021/01/04 09:16:24;;;;;;;2.20;1.30;;;;;;;3.67;100.00;101193.69;4973321;28;20226;-72
2021/01/04 09:18:54;;;;;;;2.07;1.40;;;;;;;3.68;100.00;101198.84;5006236;28;20220;-72
2021/01/04 09:21:27;;;;;;;3.60;1.50;;;;;;;3.65;100.00;101199.28;4973551;28;20245;-71
2021/01/04 09:23:52;;;;;;;1.30;1.20;;;;;;;3.71;100.00;101206.47;4990289;28;20248;-72
2021/01/04 09:26:34;;;;;;;1.87;1.20;;;;;;;3.67;100.00;101207.94;4972404;28;20217;-72
2021/01/04 09:29:12;;;;;;;1.80;1.13;;;;;;;3.56;100.00;101205.94;4974259;28;20186;-72
2021/01/04 09:31:46;;;;;;;2.50;1.20;;;;;;;3.69;100.00;101208.53;4989085;28;20359;-72
2021/01/04 09:34:13;;;;;;;2.13;1.20;;;;;;;3.77;100.00;101213.66;4989779;28;20190;-73
2021/01/04 09:36:41;;;;;;;2.13;1.03;;;;;;;3.66;100.00;101200.91;4990711;28;20237;-73
2021/01/04 09:39:08;;;;;;;1.67;1.50;;;;;;;3.77;100.00;101205.59;4990759;28;20244;-71
2021/01/04 09:41:34;;;;;;;1.97;1.40;;;;;;;3.55;100.00;101206.97;4972883;28;20271;-71
2021/01/04 09:44:08;;;;;;;2.60;1.37;;;;;;;3.59;100.00;101205.50;4989888;28;20185;-70
2021/01/04 09:46:42;;;;;;;2.43;1.23;;;;;;;3.59;100.00;101205.50;4973438;28;20221;-72
2021/01/04 09:49:12;;;;;;;2.23;1.53;;;;;;;3.55;100.00;101209.66;4976294;28;20189;-72
2021/01/04 09:51:40;;;;;;;1.63;1.50;;;;;;;3.54;100.00;101208.00;4956650;28;20229;-71
2021/01/04 09:54:07;;;;;;;2.10;1.70;;;;;;;3.54;100.00;101208.00;4973267;28;20190;-72
2021/01/04 09:56:38;;;;;;;3.33;1.80;;;;;;;3.60;100.00;101207.16;4977170;28;20280;-73
2021/01/04 09:59:19;;;;;;;2.87;1.70;;;;;;;3.58;100.00;101200.34;4978497;28;20237;-71
2021/01/04 10:01:55;;;;;;;3.20;1.30;;;;;;;3.67;100.00;101207.13;4976374;28;20255;-71
2021/01/04 10:04:32;;;;;;;2.30;1.40;;;;;;;3.82;100.00;101205.78;4992127;28;20189;-72
2021/01/04 10:06:58;;;;;;;2.10;1.57;;;;;;;3.69;100.00;101197.81;4991817;28;20221;-72
2021/01/04 10:09:25;;;;;;;2.60;1.43;;;;;;;3.79;100.00;101208.09;4992979;28;20471;-72
2021/01/04 10:11:55;;;;;;;3.20;1.60;;;;;;;3.72;100.00;101200.06;4975984;28;20232;-71
2021/01/04 10:14:21;;;;;;;2.63;1.63;;;;;;;3.73;100.00;101201.69;4993140;28;20534;-74
2021/01/04 10:16:50;;;;;;;2.67;1.60;;;;;;;3.72;100.00;101202.75;4975637;28;20236;-74
2021/01/04 10:19:23;;;;;;;3.37;1.80;;;;;;;3.68;100.00;101198.84;4976971;28;20236;-74
2021/01/04 10:22:11;;;;;;;3.33;1.70;;;;;;;3.57;100.00;101204.91;4981450;28;20730;-74
2021/01/04 10:25:00;;;;;;;3.80;1.57;;;;;;;3.64;100.00;101197.63;4991144;28;20751;-73
2021/01/04 10:27:27;;;;;;;4.27;1.80;;;;;;;3.62;100.00;101199.69;4992258;28;20249;-73
2021/01/04 10:29:53;;;;;;;4.80;1.87;;;;;;;3.76;100.00;101197.78;4992695;28;20194;-74
2021/01/04 10:32:27;;;;;;;2.40;1.40;;;;;;;3.78;100.00;101204.56;4972691;28;20281;-73
2021/01/04 10:34:55;;;;;;;2.77;1.53;;;;;;;3.70;100.00;101196.78;4972667;28;20186;-74
2021/01/04 10:37:29;;;;;;;4.20;1.60;;;;;;;3.85;100.00;101194.63;4972829;28;20221;-74
2021/01/04 10:39:59;;;;;;;2.53;1.63;;;;;;;3.86;100.00;101185.50;4988736;28;20193;-74
2021/01/04 10:42:24;;;;;;;2.23;1.77;;;;;;;3.78;100.00;101183.09;4983965;28;20221;-74
2021/01/04 10:45:13;;;;;;;2.40;1.80;;;;;;;3.73;100.00;101192.84;4972435;28;20198;-74
2021/01/04 10:47:57;;;;;;;4.13;1.83;;;;;;;3.60;100.00;101180.28;4972921;28;20218;-75
2021/01/04 10:50:36;;;;;;;1.80;1.40;;;;;;;3.76;100.00;101181.66;4956184;28;20226;-74
2021/01/04 10:53:04;;;;;;;2.87;1.30;;;;;;;3.66;100.00;101182.09;4976510;28;20842;-74
2021/01/04 10:55:31;;;;;;;2.00;1.43;;;;;;;3.68;100.00;101169.31;4974754;28;20719;-74
2021/01/04 10:58:09;;;;;;;1.93;1.40;;;;;;;3.74;100.00;101183.75;4975779;28;20194;-74
2021/01/04 11:00:34;;;;;;;1.60;1.40;;;;;;;3.65;100.00;101176.97;4973968;28;20229;-74
2021/01/04 11:03:16;;;;;;;1.87;1.23;;;;;;;3.69;100.00;101179.00;4976597;28;20190;-75
2021/01/04 11:05:42;;;;;;;2.73;1.50;;;;;;;3.72;100.00;101177.75;4974666;28;20229;-74
2021/01/04 11:08:18;;;;;;;2.77;1.50;;;;;;;3.72;100.00;101178.59;4976478;28;20186;-74
2021/01/04 11:11:11;;;;;;;3.20;1.50;;;;;;;3.83;100.00;101175.22;4986399;28;20261;-74
2021/01/04 11:13:41;;;;;;;1.27;1.10;;;;;;;3.84;100.00;101171.47;4977069;28;20196;-74
2021/01/04 11:16:18;;;;;;;2.03;1.47;;;;;;;3.92;100.00;101173.94;4989974;28;20223;-74
2021/01/04 11:18:54;;;;;;;2.43;1.63;;;;;;;3.92;100.00;101173.94;4983275;28;20245;-74
2021/01/04 11:21:34;;;;;;;2.13;1.40;;;;;;;3.95;100.00;101168.09;4983571;28;20320;-75
2021/01/04 11:24:00;;;;;;;2.00;1.33;;;;;;;3.80;100.00;101170.25;4977036;28;20569;-74
2021/01/04 11:26:25;;;;;;;2.83;1.50;;;;;;;3.96;100.00;101162.50;4991505;28;20217;-74
2021/01/04 11:28:51;;;;;;;1.60;1.20;;;;;;;3.90;100.00;101165.22;4975782;28;20182;-74
2021/01/04 11:31:19;;;;;;;1.67;1.20;;;;;;;3.99;100.00;101167.47;4975986;28;20618;-74
2021/01/04 11:33:45;;;;;;;1.97;1.20;;;;;;;3.96;100.00;101175.13;4975080;28;20189;-74
2021/01/04 11:36:13;;;;;;;1.13;1.00;;;;;;;3.87;100.00;101163.00;4989651;28;20213;-74
2021/01/04 11:38:38;;;;;;;2.70;1.30;;;;;;;3.90;100.00;101154.47;4986919;28;20209;-74
2021/01/04 11:41:06;;;;;;;3.30;1.40;;;;;;;3.93;100.00;101154.06;4990897;28;20871;-74
2021/01/04 11:43:32;;;;;;;1.63;1.17;;;;;;;4.04;100.00;101153.38;4990126;28;20833;-74
2021/01/04 11:45:58;;;;;;;1.70;1.33;;;;;;;4.10;100.00;101155.16;4989976;28;20237;-74
2021/01/04 11:48:26;;;;;;;1.17;1.07;;;;;;;4.13;100.00;101149.38;4991534;28;20212;-75
2021/01/04 11:50:51;;;;;;;1.70;1.20;;;;;;;4.24;100.00;101155.66;4970747;28;20265;-74
2021/01/04 11:53:17;;;;;;;2.60;1.33;;;;;;;4.10;100.00;101150.59;4973168;28;20672;-74
2021/01/04 11:55:45;;;;;;;1.53;1.30;;;;;;;4.01;100.00;101146.56;4970319;28;20225;-74
2021/01/04 11:58:10;;;;;;;2.70;1.20;;;;;;;4.03;100.00;101144.47;4990200;28;20214;-74
2021/01/04 12:00:36;;;;;;;1.60;1.33;;;;;;;4.14;100.00;101151.00;4989948;28;20225;-74
2021/01/04 12:03:02;;;;;;;4.30;1.50;;;;;;;4.01;100.00;101140.34;4976084;28;20193;-74
2021/01/04 12:05:28;;;;;;;1.80;1.20;;;;;;;4.01;100.00;101151.94;4970441;28;20226;-74
2021/01/04 12:07:54;;;;;;;1.37;1.10;;;;;;;4.03;100.00;101146.31;4971002;28;20182;-74
2021/01/04 12:10:20;;;;;;;2.37;1.40;;;;;;;4.11;100.00;101140.72;4989151;28;20266;-74